sensor_id;sensor_type;location;lat;lon;timestamp;pressure;altitude;pressure_sealevel;temperature;humidity
68656;BME280;55638;51.122;13.606;2023-03-21T00:01:18;100234.28;;;8.63;61.34
68656;BME280;55638;51.122;13.606;2023-03-21T00:02:50;100237.84;;;8.63;61.35
68656;BME280;55638;51.122;13.606;2023-03-21T00:04:23;100232.59;;;8.62;61.43
68656;BME280;55638;51.122;13.606;2023-03-21T00:05:56;100239.66;;;8.63;61.35
68656;BME280;55638;51.122;13.606;2023-03-21T00:07:28;100230.75;;;8.62;61.20
68656;BME280;55638;51.122;13.606;2023-03-21T00:08:59;100232.59;;;8.62;61.16
68656;BME280;55638;51.122;13.606;2023-03-21T00:10:31;100232.69;;;8.60;61.20
68656;BME280;55638;51.122;13.606;2023-03-21T00:12:14;100237.22;;;8.60;61.16
68656;BME280;55638;51.122;13.606;2023-03-21T00:13:47;100240.88;;;8.59;61.37
68656;BME280;55638;51.122;13.606;2023-03-21T00:15:19;100248.94;;;8.59;61.17
68656;BME280;55638;51.122;13.606;2023-03-21T00:17:00;100243.56;;;8.59;61.23
68656;BME280;55638;51.122;13.606;2023-03-21T00:18:32;100247.22;;;8.57;61.39
68656;BME280;55638;51.122;13.606;2023-03-21T00:20:08;100254.53;;;8.55;61.19
68656;BME280;55638;51.122;13.606;2023-03-21T00:21:45;100251.84;;;8.55;61.21
68656;BME280;55638;51.122;13.606;2023-03-21T00:23:36;100248.41;;;8.53;61.34
68656;BME280;55638;51.122;13.606;2023-03-21T00:25:09;100256.47;;;8.53;61.38
68656;BME280;55638;51.122;13.606;2023-03-21T00:26:41;100254.78;;;8.52;61.32
68656;BME280;55638;51.122;13.606;2023-03-21T00:28:12;100255.72;;;8.51;61.38
68656;BME280;55638;51.122;13.606;2023-03-21T00:29:46;100253.03;;;8.51;61.48
68656;BME280;55638;51.122;13.606;2023-03-21T00:31:21;100250.34;;;8.51;61.40
68656;BME280;55638;51.122;13.606;2023-03-21T00:32:53;100257.56;;;8.51;61.21
68656;BME280;55638;51.122;13.606;2023-03-21T00:34:27;100256.59;;;8.52;61.07
68656;BME280;55638;51.122;13.606;2023-03-21T00:36:19;100250.47;;;8.50;61.28
68656;BME280;55638;51.122;13.606;2023-03-21T00:37:52;100249.63;;;8.49;61.33
68656;BME280;55638;51.122;13.606;2023-03-21T00:39:24;100247.78;;;8.50;61.32
68656;BME280;55638;51.122;13.606;2023-03-21T00:40:55;100245.19;;;8.48;61.39
68656;BME280;55638;51.122;13.606;2023-03-21T00:42:37;100246.09;;;8.49;61.51
68656;BME280;55638;51.122;13.606;2023-03-21T00:44:10;100233.50;;;8.49;61.53
68656;BME280;55638;51.122;13.606;2023-03-21T00:45:46;100240.72;;;8.49;61.45
68656;BME280;55638;51.122;13.606;2023-03-21T00:47:20;100246.94;;;8.49;61.43
68656;BME280;55638;51.122;13.606;2023-03-21T00:48:55;100238.03;;;8.49;61.57
68656;BME280;55638;51.122;13.606;2023-03-21T00:50:27;100228.13;;;8.49;61.50
68656;BME280;55638;51.122;13.606;2023-03-21T00:52:00;100228.00;;;8.51;61.36
68656;BME280;55638;51.122;13.606;2023-03-21T00:53:46;100234.22;;;8.51;61.07
68656;BME280;55638;51.122;13.606;2023-03-21T00:55:18;100232.66;;;8.49;61.25
68656;BME280;55638;51.122;13.606;2023-03-21T00:56:50;100230.91;;;8.48;61.26
68656;BME280;55638;51.122;13.606;2023-03-21T00:58:22;100235.44;;;8.47;61.41
68656;BME280;55638;51.122;13.606;2023-03-21T00:59:54;100237.34;;;8.45;61.35
68656;BME280;55638;51.122;13.606;2023-03-21T01:01:26;100236.50;;;8.45;61.44
68656;BME280;55638;51.122;13.606;2023-03-21T01:03:04;100241.03;;;8.44;61.41
68656;BME280;55638;51.122;13.606;2023-03-21T01:04:53;100240.19;;;8.44;61.16
68656;BME280;55638;51.122;13.606;2023-03-21T01:06:25;100238.47;;;8.43;61.44
68656;BME280;55638;51.122;13.606;2023-03-21T01:07:58;100242.09;;;8.42;61.37
68656;BME280;55638;51.122;13.606;2023-03-21T01:09:30;100245.78;;;8.41;61.24
68656;BME280;55638;51.122;13.606;2023-03-21T01:11:06;100235.16;;;8.39;61.62
68656;BME280;55638;51.122;13.606;2023-03-21T01:12:38;100236.09;;;8.38;61.31
68656;BME280;55638;51.122;13.606;2023-03-21T01:14:11;100233.41;;;8.38;61.41
68656;BME280;55638;51.122;13.606;2023-03-21T01:15:58;100233.53;;;8.37;61.22
68656;BME280;55638;51.122;13.606;2023-03-21T01:17:30;100236.31;;;8.35;61.23
68656;BME280;55638;51.122;13.606;2023-03-21T01:19:04;100239.16;;;8.33;61.41
68656;BME280;55638;51.122;13.606;2023-03-21T01:20:46;100240.00;;;8.34;61.34
68656;BME280;55638;51.122;13.606;2023-03-21T01:22:18;100237.44;;;8.32;61.37
68656;BME280;55638;51.122;13.606;2023-03-21T01:23:51;100238.38;;;8.31;61.42
68656;BME280;55638;51.122;13.606;2023-03-21T01:25:23;100233.13;;;8.30;61.42
68656;BME280;55638;51.122;13.606;2023-03-21T01:26:54;100230.56;;;8.28;61.40
68656;BME280;55638;51.122;13.606;2023-03-21T01:28:27;100237.88;;;8.26;61.45
68656;BME280;55638;51.122;13.606;2023-03-21T01:30:00;100235.19;;;8.26;61.40
68656;BME280;55638;51.122;13.606;2023-03-21T01:31:33;100233.47;;;8.25;61.52
68656;BME280;55638;51.122;13.606;2023-03-21T01:33:05;100230.88;;;8.24;61.51
68656;BME280;55638;51.122;13.606;2023-03-21T01:34:37;100231.84;;;8.23;61.29
68656;BME280;55638;51.122;13.606;2023-03-21T01:36:15;100231.94;;;8.21;61.70
68656;BME280;55638;51.122;13.606;2023-03-21T01:37:47;100241.72;;;8.22;61.49
68656;BME280;55638;51.122;13.606;2023-03-21T01:39:19;100238.28;;;8.20;61.52
68656;BME280;55638;51.122;13.606;2023-03-21T01:40:53;100241.06;;;8.19;61.66
68656;BME280;55638;51.122;13.606;2023-03-21T01:42:31;100241.06;;;8.19;61.62
68656;BME280;55638;51.122;13.606;2023-03-21T01:44:04;100237.66;;;8.17;61.56
68656;BME280;55638;51.122;13.606;2023-03-21T01:47:58;100238.59;;;8.16;61.41
68656;BME280;55638;51.122;13.606;2023-03-21T01:49:44;100244.09;;;8.14;61.93
68656;BME280;55638;51.122;13.606;2023-03-21T01:51:22;100241.53;;;8.13;61.85
68656;BME280;55638;51.122;13.606;2023-03-21T01:52:59;100249.56;;;8.13;61.84
68656;BME280;55638;51.122;13.606;2023-03-21T01:54:37;100247.88;;;8.12;62.16
68656;BME280;55638;51.122;13.606;2023-03-21T01:56:17;100249.69;;;8.11;62.10
68656;BME280;55638;51.122;13.606;2023-03-21T01:58:10;100245.19;;;8.12;61.57
68656;BME280;55638;51.122;13.606;2023-03-21T02:00:05;100239.06;;;8.09;61.85
68656;BME280;55638;51.122;13.606;2023-03-21T02:01:51;100241.72;;;8.09;61.68
68656;BME280;55638;51.122;13.606;2023-03-21T02:03:28;100235.50;;;8.09;61.81
68656;BME280;55638;51.122;13.606;2023-03-21T02:07:06;100235.72;;;8.06;61.67
68656;BME280;55638;51.122;13.606;2023-03-21T02:08:44;100232.19;;;8.05;61.31
68656;BME280;55638;51.122;13.606;2023-03-21T02:10:18;100219.75;;;8.04;61.06
68656;BME280;55638;51.122;13.606;2023-03-21T02:11:54;100224.38;;;8.02;61.06
68656;BME280;55638;51.122;13.606;2023-03-21T02:13:30;100234.38;;;8.00;60.88
68656;BME280;55638;51.122;13.606;2023-03-21T02:15:03;100232.63;;;7.99;60.73
68656;BME280;55638;51.122;13.606;2023-03-21T02:16:51;100231.91;;;7.97;60.51
68656;BME280;55638;51.122;13.606;2023-03-21T02:18:37;100234.69;;;7.96;60.51
68656;BME280;55638;51.122;13.606;2023-03-21T02:20:45;100237.81;;;7.90;60.45
68656;BME280;55638;51.122;13.606;2023-03-21T02:22:41;100227.19;;;7.88;60.55
68656;BME280;55638;51.122;13.606;2023-03-21T02:24:27;100231.81;;;7.86;60.40
68656;BME280;55638;51.122;13.606;2023-03-21T02:26:40;100223.97;;;7.83;60.40
68656;BME280;55638;51.122;13.606;2023-03-21T02:28:44;100222.38;;;7.80;60.27
68656;BME280;55638;51.122;13.606;2023-03-21T02:30:33;100225.50;;;7.74;60.09
68656;BME280;55638;51.122;13.606;2023-03-21T02:38:26;100230.88;;;7.61;60.31
68656;BME280;55638;51.122;13.606;2023-03-21T02:41:49;100225.72;;;7.58;60.12
68656;BME280;55638;51.122;13.606;2023-03-21T02:43:38;100216.91;;;7.56;60.13
68656;BME280;55638;51.122;13.606;2023-03-21T02:45:20;100216.41;;;7.51;60.07
68656;BME280;55638;51.122;13.606;2023-03-21T02:47:10;100212.97;;;7.49;60.07
68656;BME280;55638;51.122;13.606;2023-03-21T02:48:56;100214.16;;;7.45;60.03
68656;BME280;55638;51.122;13.606;2023-03-21T02:50:47;100215.09;;;7.44;59.94
68656;BME280;55638;51.122;13.606;2023-03-21T02:52:26;100217.13;;;7.40;59.99
68656;BME280;55638;51.122;13.606;2023-03-21T02:54:15;100212.84;;;7.38;60.08
68656;BME280;55638;51.122;13.606;2023-03-21T02:56:08;100220.25;;;7.34;59.96
68656;BME280;55638;51.122;13.606;2023-03-21T02:57:47;100214.25;;;7.31;60.08
68656;BME280;55638;51.122;13.606;2023-03-21T02:59:23;100211.78;;;7.28;60.23
68656;BME280;55638;51.122;13.606;2023-03-21T03:00:57;100211.97;;;7.25;60.12
68656;BME280;55638;51.122;13.606;2023-03-21T03:02:37;100208.66;;;7.21;60.15
68656;BME280;55638;51.122;13.606;2023-03-21T03:04:23;100208.13;;;7.16;60.29
68656;BME280;55638;51.122;13.606;2023-03-21T03:05:57;100215.31;;;7.15;60.10
68656;BME280;55638;51.122;13.606;2023-03-21T03:07:46;100214.84;;;7.09;60.35
68656;BME280;55638;51.122;13.606;2023-03-21T03:09:30;100207.78;;;7.08;60.19
68656;BME280;55638;51.122;13.606;2023-03-21T03:11:27;100216.25;;;7.02;60.57
68656;BME280;55638;51.122;13.606;2023-03-21T03:18:31;100209.78;;;6.91;60.49
68656;BME280;55638;51.122;13.606;2023-03-21T03:21:57;100215.75;;;6.82;60.76
68656;BME280;55638;51.122;13.606;2023-03-21T03:23:43;100215.00;;;6.80;61.00
68656;BME280;55638;51.122;13.606;2023-03-21T03:26:25;100211.69;;;6.77;61.22
68656;BME280;55638;51.122;13.606;2023-03-21T03:27:52;100209.00;;;6.77;60.73
68656;BME280;55638;51.122;13.606;2023-03-21T03:29:27;100215.31;;;6.76;60.72
68656;BME280;55638;51.122;13.606;2023-03-21T03:31:00;100209.22;;;6.74;60.85
68656;BME280;55638;51.122;13.606;2023-03-21T03:32:48;100203.94;;;6.72;61.11
68656;BME280;55638;51.122;13.606;2023-03-21T03:34:24;100205.75;;;6.72;60.90
68656;BME280;55638;51.122;13.606;2023-03-21T03:35:58;100208.44;;;6.72;61.02
68656;BME280;55638;51.122;13.606;2023-03-21T03:37:39;100202.31;;;6.69;61.18
68656;BME280;55638;51.122;13.606;2023-03-21T03:39:13;100205.00;;;6.69;61.21
68656;BME280;55638;51.122;13.606;2023-03-21T03:40:58;100204.13;;;6.69;61.21
68656;BME280;55638;51.122;13.606;2023-03-21T03:42:57;100212.28;;;6.67;61.43
68656;BME280;55638;51.122;13.606;2023-03-21T03:44:36;100205.00;;;6.69;61.22
68656;BME280;55638;51.122;13.606;2023-03-21T03:46:16;100205.97;;;6.68;61.38
68656;BME280;55638;51.122;13.606;2023-03-21T03:48:01;100205.88;;;6.70;61.43
68656;BME280;55638;51.122;13.606;2023-03-21T03:49:50;100204.91;;;6.71;61.44
68656;BME280;55638;51.122;13.606;2023-03-21T03:51:28;100213.78;;;6.72;61.30
68656;BME280;55638;51.122;13.606;2023-03-21T03:53:15;100210.16;;;6.73;61.13
68656;BME280;55638;51.122;13.606;2023-03-21T03:54:53;100210.06;;;6.74;61.22
68656;BME280;55638;51.122;13.606;2023-03-21T03:56:27;100211.88;;;6.74;61.14
68656;BME280;55638;51.122;13.606;2023-03-21T03:58:00;100206.53;;;6.74;61.03
68656;BME280;55638;51.122;13.606;2023-03-21T03:59:37;100211.00;;;6.73;61.17
68656;BME280;55638;51.122;13.606;2023-03-21T04:01:21;100211.00;;;6.73;61.19
68656;BME280;55638;51.122;13.606;2023-03-21T04:02:53;100207.47;;;6.73;61.15
68656;BME280;55638;51.122;13.606;2023-03-21T04:04:27;100215.50;;;6.73;61.22
68656;BME280;55638;51.122;13.606;2023-03-21T04:06:01;100215.50;;;6.73;61.29
68656;BME280;55638;51.122;13.606;2023-03-21T04:07:33;100224.50;;;6.72;61.23
68656;BME280;55638;51.122;13.606;2023-03-21T04:09:05;100219.16;;;6.72;61.52
68656;BME280;55638;51.122;13.606;2023-03-21T04:10:50;100218.19;;;6.73;61.40
68656;BME280;55638;51.122;13.606;2023-03-21T04:12:23;100220.84;;;6.73;61.33
68656;BME280;55638;51.122;13.606;2023-03-21T04:14:08;100221.63;;;6.75;61.39
68656;BME280;55638;51.122;13.606;2023-03-21T04:15:39;100219.91;;;6.74;61.40
68656;BME280;55638;51.122;13.606;2023-03-21T04:17:17;100223.47;;;6.74;61.39
68656;BME280;55638;51.122;13.606;2023-03-21T04:18:51;100227.00;;;6.75;61.40
68656;BME280;55638;51.122;13.606;2023-03-21T04:20:23;100223.34;;;6.76;61.68
68656;BME280;55638;51.122;13.606;2023-03-21T04:22:07;100230.44;;;6.77;61.53
68656;BME280;55638;51.122;13.606;2023-03-21T04:23:43;100230.44;;;6.77;61.44
68656;BME280;55638;51.122;13.606;2023-03-21T04:25:14;100233.97;;;6.77;61.63
68656;BME280;55638;51.122;13.606;2023-03-21T04:27:03;100223.97;;;6.79;61.47
68656;BME280;55638;51.122;13.606;2023-03-21T04:28:43;100222.19;;;6.80;61.41
68656;BME280;55638;51.122;13.606;2023-03-21T04:30:35;100218.53;;;6.81;61.43
68656;BME280;55638;51.122;13.606;2023-03-21T04:32:13;100225.59;;;6.82;61.49
68656;BME280;55638;51.122;13.606;2023-03-21T04:34:00;100222.94;;;6.82;61.55
68656;BME280;55638;51.122;13.606;2023-03-21T04:35:33;100226.47;;;6.82;61.50
68656;BME280;55638;51.122;13.606;2023-03-21T04:37:09;100222.84;;;6.83;61.52
68656;BME280;55638;51.122;13.606;2023-03-21T04:38:44;100223.69;;;6.84;61.59
68656;BME280;55638;51.122;13.606;2023-03-21T04:40:20;100220.16;;;6.83;61.46
68656;BME280;55638;51.122;13.606;2023-03-21T04:41:52;100223.69;;;6.84;61.65
68656;BME280;55638;51.122;13.606;2023-03-21T04:43:26;100223.69;;;6.84;61.58
68656;BME280;55638;51.122;13.606;2023-03-21T04:45:01;100219.22;;;6.84;61.74
68656;BME280;55638;51.122;13.606;2023-03-21T04:46:33;100223.69;;;6.84;61.58
68656;BME280;55638;51.122;13.606;2023-03-21T04:48:05;100224.47;;;6.86;61.74
68656;BME280;55638;51.122;13.606;2023-03-21T04:49:38;100221.69;;;6.87;61.55
68656;BME280;55638;51.122;13.606;2023-03-21T04:51:09;100223.53;;;6.87;61.51
68656;BME280;55638;51.122;13.606;2023-03-21T04:52:41;100228.75;;;6.88;61.35
68656;BME280;55638;51.122;13.606;2023-03-21T04:54:13;100219.88;;;6.88;61.49
68656;BME280;55638;51.122;13.606;2023-03-21T04:55:44;100225.22;;;6.88;61.73
68656;BME280;55638;51.122;13.606;2023-03-21T04:57:16;100217.97;;;6.90;61.54
68656;BME280;55638;51.122;13.606;2023-03-21T04:58:48;100226.00;;;6.90;61.63
68656;BME280;55638;51.122;13.606;2023-03-21T05:00:20;100226.84;;;6.90;61.77
68656;BME280;55638;51.122;13.606;2023-03-21T05:01:53;100225.88;;;6.91;61.83
68656;BME280;55638;51.122;13.606;2023-03-21T05:03:27;100233.06;;;6.91;61.71
68656;BME280;55638;51.122;13.606;2023-03-21T05:05:02;100230.19;;;6.94;61.84
68656;BME280;55638;51.122;13.606;2023-03-21T05:06:34;100223.09;;;6.93;61.69
68656;BME280;55638;51.122;13.606;2023-03-21T05:08:06;100219.47;;;6.94;61.76
68656;BME280;55638;51.122;13.606;2023-03-21T05:09:38;100220.31;;;6.95;61.69
68656;BME280;55638;51.122;13.606;2023-03-21T05:11:10;100218.47;;;6.95;61.73
68656;BME280;55638;51.122;13.606;2023-03-21T05:12:42;100222.03;;;6.96;61.65
68656;BME280;55638;51.122;13.606;2023-03-21T05:14:16;100220.97;;;6.98;61.70
68656;BME280;55638;51.122;13.606;2023-03-21T05:15:48;100229.97;;;6.97;61.54
68656;BME280;55638;51.122;13.606;2023-03-21T05:17:20;100219.25;;;6.97;61.65
68656;BME280;55638;51.122;13.606;2023-03-21T05:18:59;100223.63;;;6.98;61.69
68656;BME280;55638;51.122;13.606;2023-03-21T05:20:38;100220.88;;;7.00;61.43
68656;BME280;55638;51.122;13.606;2023-03-21T05:22:13;100217.34;;;6.99;61.46
68656;BME280;55638;51.122;13.606;2023-03-21T05:23:50;100211.97;;;6.99;61.35
68656;BME280;55638;51.122;13.606;2023-03-21T05:25:25;100215.50;;;7.00;61.41
68656;BME280;55638;51.122;13.606;2023-03-21T05:27:12;100216.38;;;7.00;61.42
68656;BME280;55638;51.122;13.606;2023-03-21T05:28:49;100212.84;;;7.00;61.48
68656;BME280;55638;51.122;13.606;2023-03-21T05:30:21;100216.38;;;7.00;61.58
68656;BME280;55638;51.122;13.606;2023-03-21T05:31:56;100215.31;;;7.03;61.49
68656;BME280;55638;51.122;13.606;2023-03-21T05:33:28;100216.25;;;7.02;61.52
68656;BME280;55638;51.122;13.606;2023-03-21T05:35:01;100219.78;;;7.02;61.33
68656;BME280;55638;51.122;13.606;2023-03-21T05:36:33;100212.63;;;7.03;61.24
68656;BME280;55638;51.122;13.606;2023-03-21T05:38:08;100216.16;;;7.03;61.33
68656;BME280;55638;51.122;13.606;2023-03-21T05:39:51;100215.19;;;7.04;61.18
68656;BME280;55638;51.122;13.606;2023-03-21T05:41:29;100216.03;;;7.05;61.05
68656;BME280;55638;51.122;13.606;2023-03-21T05:43:02;100218.72;;;7.05;61.05
68656;BME280;55638;51.122;13.606;2023-03-21T05:44:34;100220.53;;;7.04;61.15
68656;BME280;55638;51.122;13.606;2023-03-21T05:46:09;100226.75;;;7.05;61.18
68656;BME280;55638;51.122;13.606;2023-03-21T05:47:41;100220.53;;;7.04;61.01
68656;BME280;55638;51.122;13.606;2023-03-21T05:49:15;100226.75;;;7.05;61.00
68656;BME280;55638;51.122;13.606;2023-03-21T05:50:48;100223.34;;;7.03;60.95
68656;BME280;55638;51.122;13.606;2023-03-21T05:52:22;100224.28;;;7.02;60.95
68656;BME280;55638;51.122;13.606;2023-03-21T05:53:55;100222.47;;;7.02;60.90
68656;BME280;55638;51.122;13.606;2023-03-21T05:55:26;100212.72;;;7.01;61.03
68656;BME280;55638;51.122;13.606;2023-03-21T05:56:59;100218.19;;;7.00;60.80
68656;BME280;55638;51.122;13.606;2023-03-21T05:58:51;100210.25;;;6.98;60.78
68656;BME280;55638;51.122;13.606;2023-03-21T06:00:25;100214.88;;;6.96;60.81
68656;BME280;55638;51.122;13.606;2023-03-21T06:02:15;100215.81;;;6.95;60.85
68656;BME280;55638;51.122;13.606;2023-03-21T06:03:47;100214.94;;;6.95;60.88
68656;BME280;55638;51.122;13.606;2023-03-21T06:05:21;100214.19;;;6.92;60.99
68656;BME280;55638;51.122;13.606;2023-03-21T06:06:53;100209.78;;;6.91;61.19
68656;BME280;55638;51.122;13.606;2023-03-21T06:08:26;100216.88;;;6.92;61.34
68656;BME280;55638;51.122;13.606;2023-03-21T06:09:58;100217.75;;;6.93;61.56
68656;BME280;55638;51.122;13.606;2023-03-21T06:11:33;100222.13;;;6.94;61.62
68656;BME280;55638;51.122;13.606;2023-03-21T06:13:35;100220.09;;;6.98;61.78
68656;BME280;55638;51.122;13.606;2023-03-21T06:15:08;100226.13;;;7.01;61.88
68656;BME280;55638;51.122;13.606;2023-03-21T06:16:48;100219.56;;;7.05;61.91
68656;BME280;55638;51.122;13.606;2023-03-21T06:18:21;100220.22;;;7.09;62.06
68656;BME280;55638;51.122;13.606;2023-03-21T06:19:58;100221.53;;;7.16;62.08
68656;BME280;55638;51.122;13.606;2023-03-21T06:21:38;100227.41;;;7.21;61.90
68656;BME280;55638;51.122;13.606;2023-03-21T06:23:11;100227.97;;;7.26;62.06
68656;BME280;55638;51.122;13.606;2023-03-21T06:24:43;100228.50;;;7.31;62.07
68656;BME280;55638;51.122;13.606;2023-03-21T06:26:15;100232.59;;;7.37;62.11
68656;BME280;55638;51.122;13.606;2023-03-21T06:27:46;100229.59;;;7.42;61.84
68656;BME280;55638;51.122;13.606;2023-03-21T06:29:19;100228.28;;;7.47;61.93
68656;BME280;55638;51.122;13.606;2023-03-21T06:30:52;100236.69;;;7.55;61.75
68656;BME280;55638;51.122;13.606;2023-03-21T06:32:28;100239.16;;;7.58;61.63
68656;BME280;55638;51.122;13.606;2023-03-21T06:34:05;100236.03;;;7.65;61.60
68656;BME280;55638;51.122;13.606;2023-03-21T06:35:37;100238.38;;;7.69;61.63
68656;BME280;55638;51.122;13.606;2023-03-21T06:37:09;100241.59;;;7.74;61.48
68656;BME280;55638;51.122;13.606;2023-03-21T06:38:41;100241.28;;;7.79;61.58
68656;BME280;55638;51.122;13.606;2023-03-21T06:40:13;100240.94;;;7.83;61.66
68656;BME280;55638;51.122;13.606;2023-03-21T06:41:45;100242.31;;;7.89;61.54
68656;BME280;55638;51.122;13.606;2023-03-21T06:43:17;100242.88;;;7.94;61.48
68656;BME280;55638;51.122;13.606;2023-03-21T06:44:50;100246.91;;;8.00;61.40
68656;BME280;55638;51.122;13.606;2023-03-21T06:46:22;100238.53;;;8.04;61.53
68656;BME280;55638;51.122;13.606;2023-03-21T06:47:53;100244.31;;;8.11;61.51
68656;BME280;55638;51.122;13.606;2023-03-21T06:49:39;100246.44;;;8.19;61.79
68656;BME280;55638;51.122;13.606;2023-03-21T06:51:15;100244.28;;;8.24;61.71
68656;BME280;55638;51.122;13.606;2023-03-21T06:53:00;100249.13;;;8.31;61.55
68656;BME280;55638;51.122;13.606;2023-03-21T06:54:36;100245.91;;;8.39;61.47
68656;BME280;55638;51.122;13.606;2023-03-21T06:56:14;100250.78;;;8.45;61.18
68656;BME280;55638;51.122;13.606;2023-03-21T06:57:51;100252.09;;;8.52;61.04
68656;BME280;55638;51.122;13.606;2023-03-21T06:59:36;100254.31;;;8.59;60.70
68656;BME280;55638;51.122;13.606;2023-03-21T07:01:26;100250.19;;;8.66;60.75
68656;BME280;55638;51.122;13.606;2023-03-21T07:03:07;100244.38;;;8.72;60.98
68656;BME280;55638;51.122;13.606;2023-03-21T07:04:40;100246.59;;;8.78;60.85
68656;BME280;55638;51.122;13.606;2023-03-21T07:06:17;100248.91;;;8.83;60.69
68656;BME280;55638;51.122;13.606;2023-03-21T07:07:49;100247.63;;;8.88;60.59
68656;BME280;55638;51.122;13.606;2023-03-21T07:09:21;100252.53;;;8.94;60.74
68656;BME280;55638;51.122;13.606;2023-03-21T07:10:57;100258.41;;;8.99;60.88
68656;BME280;55638;51.122;13.606;2023-03-21T07:12:29;100249.13;;;9.03;60.86
68656;BME280;55638;51.122;13.606;2023-03-21T07:14:32;100255.75;;;9.11;60.71
68656;BME280;55638;51.122;13.606;2023-03-21T07:16:05;100256.25;;;9.16;60.69
68656;BME280;55638;51.122;13.606;2023-03-21T07:17:38;100260.19;;;9.23;60.31
68656;BME280;55638;51.122;13.606;2023-03-21T07:19:10;100251.88;;;9.26;60.26
68656;BME280;55638;51.122;13.606;2023-03-21T07:20:45;100252.38;;;9.31;60.03
68656;BME280;55638;51.122;13.606;2023-03-21T07:22:19;100253.00;;;9.35;60.02
68656;BME280;55638;51.122;13.606;2023-03-21T07:23:51;100251.91;;;9.37;60.07
68656;BME280;55638;51.122;13.606;2023-03-21T07:25:23;100254.38;;;9.40;59.64
68656;BME280;55638;51.122;13.606;2023-03-21T07:26:55;100249.72;;;9.42;59.88
68656;BME280;55638;51.122;13.606;2023-03-21T07:28:27;100255.69;;;9.46;59.86
68656;BME280;55638;51.122;13.606;2023-03-21T07:29:59;100251.06;;;9.48;59.47
68656;BME280;55638;51.122;13.606;2023-03-21T07:31:31;100253.56;;;9.51;59.55
68656;BME280;55638;51.122;13.606;2023-03-21T07:33:03;100250.72;;;9.53;59.56
68656;BME280;55638;51.122;13.606;2023-03-21T07:34:35;100242.41;;;9.56;59.74
68656;BME280;55638;51.122;13.606;2023-03-21T07:36:13;100254.69;;;9.60;59.55
68656;BME280;55638;51.122;13.606;2023-03-21T07:37:46;100250.63;;;9.65;60.11
68656;BME280;55638;51.122;13.606;2023-03-21T07:39:23;100250.28;;;9.70;59.77
68656;BME280;55638;51.122;13.606;2023-03-21T07:40:58;100252.50;;;9.76;59.65
68656;BME280;55638;51.122;13.606;2023-03-21T07:42:33;100259.19;;;9.82;59.94
68656;BME280;55638;51.122;13.606;2023-03-21T07:44:04;100257.75;;;9.89;59.96
68656;BME280;55638;51.122;13.606;2023-03-21T07:45:37;100255.44;;;9.95;60.00
68656;BME280;55638;51.122;13.606;2023-03-21T07:47:11;100252.13;;;10.03;60.04
68656;BME280;55638;51.122;13.606;2023-03-21T07:48:43;100247.84;;;10.12;60.34
68656;BME280;55638;51.122;13.606;2023-03-21T07:50:15;100254.03;;;10.24;60.38
68656;BME280;55638;51.122;13.606;2023-03-21T07:51:48;100257.97;;;10.31;59.55
68656;BME280;55638;51.122;13.606;2023-03-21T07:53:19;100260.78;;;10.40;59.60
68656;BME280;55638;51.122;13.606;2023-03-21T07:54:51;100256.34;;;10.51;59.37
68656;BME280;55638;51.122;13.606;2023-03-21T07:56:23;100251.16;;;10.59;59.28
68656;BME280;55638;51.122;13.606;2023-03-21T07:57:55;100243.34;;;10.67;59.17
68656;BME280;55638;51.122;13.606;2023-03-21T07:59:27;100256.06;;;10.76;58.92
68656;BME280;55638;51.122;13.606;2023-03-21T08:00:59;100243.78;;;10.83;58.78
68656;BME280;55638;51.122;13.606;2023-03-21T08:02:32;100238.72;;;10.90;58.21
68656;BME280;55638;51.122;13.606;2023-03-21T08:04:04;100252.53;;;10.97;58.18
68656;BME280;55638;51.122;13.606;2023-03-21T08:05:37;100243.09;;;11.02;58.10
68656;BME280;55638;51.122;13.606;2023-03-21T08:07:10;100239.84;;;11.08;58.22
68656;BME280;55638;51.122;13.606;2023-03-21T08:08:41;100243.88;;;11.14;58.41
68656;BME280;55638;51.122;13.606;2023-03-21T08:10:13;100236.94;;;11.21;57.99
68656;BME280;55638;51.122;13.606;2023-03-21T08:11:45;100241.81;;;11.27;57.98
68656;BME280;55638;51.122;13.606;2023-03-21T08:13:17;100238.59;;;11.33;57.81
68656;BME280;55638;51.122;13.606;2023-03-21T08:14:48;100246.06;;;11.41;57.48
68656;BME280;55638;51.122;13.606;2023-03-21T08:16:20;100248.34;;;11.46;57.12
68656;BME280;55638;51.122;13.606;2023-03-21T08:17:52;100245.97;;;11.52;56.80
68656;BME280;55638;51.122;13.606;2023-03-21T08:19:24;100252.81;;;11.56;56.40
68656;BME280;55638;51.122;13.606;2023-03-21T08:20:57;100248.00;;;11.60;56.45
68656;BME280;55638;51.122;13.606;2023-03-21T08:22:29;100244.91;;;11.65;56.24
68656;BME280;55638;51.122;13.606;2023-03-21T08:24:01;100250.91;;;11.68;56.35
68656;BME280;55638;51.122;13.606;2023-03-21T08:25:33;100244.50;;;11.69;56.36
68656;BME280;55638;51.122;13.606;2023-03-21T08:27:04;100250.47;;;11.73;56.31
68656;BME280;55638;51.122;13.606;2023-03-21T08:28:36;100250.25;;;11.76;56.27
68656;BME280;55638;51.122;13.606;2023-03-21T08:30:11;100253.41;;;11.81;56.17
68656;BME280;55638;51.122;13.606;2023-03-21T08:31:43;100247.75;;;11.84;56.22
68656;BME280;55638;51.122;13.606;2023-03-21T08:33:15;100241.94;;;11.89;56.05
68656;BME280;55638;51.122;13.606;2023-03-21T08:34:49;100249.91;;;11.90;55.80
68656;BME280;55638;51.122;13.606;2023-03-21T08:36:21;100244.25;;;11.93;55.91
68656;BME280;55638;51.122;13.606;2023-03-21T08:37:53;100236.72;;;11.97;56.02
68656;BME280;55638;51.122;13.606;2023-03-21T08:39:25;100240.84;;;12.01;55.95
68656;BME280;55638;51.122;13.606;2023-03-21T08:40:58;100251.38;;;12.04;55.83
68656;BME280;55638;51.122;13.606;2023-03-21T08:42:33;100250.09;;;12.08;55.85
68656;BME280;55638;51.122;13.606;2023-03-21T08:44:06;100243.44;;;12.12;55.32